sensor_id;sensor_type;location;lat;lon;timestamp;temperature;humidity
52139;DHT22;38131;53.256;6.460;2023-03-18T04:43:39;8.50;99.90
52139;DHT22;38131;53.256;6.460;2023-03-18T05:10:46;8.50;99.90
52139;DHT22;38131;53.256;6.460;2023-03-18T05:17:12;8.40;99.90
52139;DHT22;38131;53.256;6.460;2023-03-18T05:19:56;8.40;99.90
52139;DHT22;38131;53.256;6.460;2023-03-18T05:22:22;8.40;99.90
52139;DHT22;38131;53.256;6.460;2023-03-18T05:25:08;8.50;99.90
52139;DHT22;38131;53.256;6.460;2023-03-18T05:31:52;8.40;99.90
52139;DHT22;38131;53.256;6.460;2023-03-18T06:58:05;9.00;99.90
52139;DHT22;38131;53.256;6.460;2023-03-18T07:00:57;9.00;99.90
52139;DHT22;38131;53.256;6.460;2023-03-18T07:03:23;9.00;99.90
52139;DHT22;38131;53.256;6.460;2023-03-18T07:09:22;9.10;99.90
52139;DHT22;38131;53.256;6.460;2023-03-18T07:11:51;9.20;99.90
52139;DHT22;38131;53.256;6.460;2023-03-18T07:14:18;9.30;99.90
52139;DHT22;38131;53.256;6.460;2023-03-18T07:16:50;9.50;99.90
52139;DHT22;38131;53.256;6.460;2023-03-18T07:19:16;9.60;99.90
52139;DHT22;38131;53.256;6.460;2023-03-18T07:21:43;9.60;99.90
52139;DHT22;38131;53.256;6.460;2023-03-18T07:24:28;9.80;99.90
52139;DHT22;38131;53.256;6.460;2023-03-18T07:30:35;10.10;99.90
52139;DHT22;38131;53.256;6.460;2023-03-18T07:36:19;10.10;99.90
52139;DHT22;38131;53.256;6.460;2023-03-18T07:38:45;10.00;99.90
52139;DHT22;38131;53.256;6.460;2023-03-18T07:41:46;10.00;99.90
52139;DHT22;38131;53.256;6.460;2023-03-18T07:44:21;10.00;99.90
52139;DHT22;38131;53.256;6.460;2023-03-18T08:02:34;10.10;99.90
52139;DHT22;38131;53.256;6.460;2023-03-18T08:05:18;9.60;99.90
52139;DHT22;38131;53.256;6.460;2023-03-18T08:07:46;10.20;99.90
52139;DHT22;38131;53.256;6.460;2023-03-18T08:10:16;10.20;99.90
52139;DHT22;38131;53.256;6.460;2023-03-18T08:12:45;10.20;99.90
52139;DHT22;38131;53.256;6.460;2023-03-18T08:15:11;10.20;99.90
52139;DHT22;38131;53.256;6.460;2023-03-18T08:17:38;10.30;99.90
52139;DHT22;38131;53.256;6.460;2023-03-18T08:20:05;10.40;99.90
52139;DHT22;38131;53.256;6.460;2023-03-18T08:22:44;10.50;99.90
52139;DHT22;38131;53.256;6.460;2023-03-18T08:25:11;10.60;99.90
52139;DHT22;38131;53.256;6.460;2023-03-18T08:27:39;10.60;99.90
52139;DHT22;38131;53.256;6.460;2023-03-18T08:30:10;10.60;99.90
52139;DHT22;38131;53.256;6.460;2023-03-18T10:47:26;13.70;99.90
52139;DHT22;38131;53.256;6.460;2023-03-18T11:20:21;14.30;99.90
52139;DHT22;38131;53.256;6.460;2023-03-18T11:22:51;14.50;99.90
52139;DHT22;38131;53.256;6.460;2023-03-18T11:44:29;14.30;99.90
52139;DHT22;38131;53.256;6.460;2023-03-18T19:18:45;11.20;99.90
52139;DHT22;38131;53.256;6.460;2023-03-18T19:21:13;11.20;99.90
52139;DHT22;38131;53.256;6.460;2023-03-18T19:23:39;11.20;99.90
52139;DHT22;38131;53.256;6.460;2023-03-18T19:29:00;11.10;99.90
52139;DHT22;38131;53.256;6.460;2023-03-18T19:31:28;11.10;99.90
52139;DHT22;38131;53.256;6.460;2023-03-18T19:40:36;11.00;99.90
52139;DHT22;38131;53.256;6.460;2023-03-18T19:43:26;10.90;99.90
52139;DHT22;38131;53.256;6.460;2023-03-18T19:45:52;10.90;99.90
52139;DHT22;38131;53.256;6.460;2023-03-18T19:48:27;10.90;99.90
52139;DHT22;38131;53.256;6.460;2023-03-18T19:50:54;10.80;99.90
52139;DHT22;38131;53.256;6.460;2023-03-18T19:56:01;10.70;99.90
52139;DHT22;38131;53.256;6.460;2023-03-18T19:58:33;10.70;99.90
52139;DHT22;38131;53.256;6.460;2023-03-18T20:01:00;10.60;99.90
52139;DHT22;38131;53.256;6.460;2023-03-18T20:03:28;10.60;99.90
52139;DHT22;38131;53.256;6.460;2023-03-18T20:05:54;10.50;99.90
52139;DHT22;38131;53.256;6.460;2023-03-18T20:08:21;10.50;99.90
52139;DHT22;38131;53.256;6.460;2023-03-18T20:10:47;10.40;99.90
52139;DHT22;38131;53.256;6.460;2023-03-18T20:13:16;10.40;99.90
52139;DHT22;38131;53.256;6.460;2023-03-18T20:15:42;10.40;99.90
52139;DHT22;38131;53.256;6.460;2023-03-18T20:21:57;10.30;99.90
52139;DHT22;38131;53.256;6.460;2023-03-18T20:24:30;10.20;99.90
52139;DHT22;38131;53.256;6.460;2023-03-18T20:26:56;10.30;99.90
52139;DHT22;38131;53.256;6.460;2023-03-18T20:29:28;10.20;99.90
52139;DHT22;38131;53.256;6.460;2023-03-18T20:31:55;10.20;99.90
52139;DHT22;38131;53.256;6.460;2023-03-18T20:34:24;10.20;99.90
52139;DHT22;38131;53.256;6.460;2023-03-18T20:36:50;10.20;99.90
52139;DHT22;38131;53.256;6.460;2023-03-18T20:39:35;10.20;99.90
52139;DHT22;38131;53.256;6.460;2023-03-18T20:42:02;10.20;99.90
52139;DHT22;38131;53.256;6.460;2023-03-18T20:45:04;10.20;99.90
52139;DHT22;38131;53.256;6.460;2023-03-18T20:47:31;10.20;99.90
52139;DHT22;38131;53.256;6.460;2023-03-18T20:50:19;10.20;99.90
52139;DHT22;38131;53.256;6.460;2023-03-18T20:56:28;10.10;99.90
52139;DHT22;38131;53.256;6.460;2023-03-18T20:59:13;10.10;99.90
52139;DHT22;38131;53.256;6.460;2023-03-18T21:02:09;10.10;99.90
52139;DHT22;38131;53.256;6.460;2023-03-18T21:04:42;10.00;99.90
52139;DHT22;38131;53.256;6.460;2023-03-18T21:07:12;10.00;99.90
52139;DHT22;38131;53.256;6.460;2023-03-18T21:12:50;10.00;99.90
52139;DHT22;38131;53.256;6.460;2023-03-18T21:15:28;9.90;99.90
52139;DHT22;38131;53.256;6.460;2023-03-18T21:17:55;9.90;99.90
52139;DHT22;38131;53.256;6.460;2023-03-18T21:20:24;9.90;99.90
52139;DHT22;38131;53.256;6.460;2023-03-18T21:22:52;9.80;99.90
52139;DHT22;38131;53.256;6.460;2023-03-18T21:25:23;9.90;99.90
52139;DHT22;38131;53.256;6.460;2023-03-18T21:28:23;9.90;99.90
52139;DHT22;38131;53.256;6.460;2023-03-18T21:30:52;9.80;99.90
52139;DHT22;38131;53.256;6.460;2023-03-18T21:33:29;9.80;99.90
52139;DHT22;38131;53.256;6.460;2023-03-18T21:36:09;9.80;99.90
52139;DHT22;38131;53.256;6.460;2023-03-18T21:38:36;9.80;99.90
52139;DHT22;38131;53.256;6.460;2023-03-18T21:41:03;9.80;99.90
52139;DHT22;38131;53.256;6.460;2023-03-18T21:43:39;9.80;99.90
52139;DHT22;38131;53.256;6.460;2023-03-18T21:46:11;9.90;99.90
52139;DHT22;38131;53.256;6.460;2023-03-18T21:48:56;9.90;99.90
52139;DHT22;38131;53.256;6.460;2023-03-18T21:51:29;9.90;99.90
52139;DHT22;38131;53.256;6.460;2023-03-18T21:54:22;9.80;99.90
52139;DHT22;38131;53.256;6.460;2023-03-18T21:57:17;9.80;99.90
52139;DHT22;38131;53.256;6.460;2023-03-18T21:59:44;9.90;99.90
52139;DHT22;38131;53.256;6.460;2023-03-18T22:02:32;9.90;99.90
52139;DHT22;38131;53.256;6.460;2023-03-18T22:08:03;10.00;99.90
52139;DHT22;38131;53.256;6.460;2023-03-18T22:10:29;10.00;99.90
52139;DHT22;38131;53.256;6.460;2023-03-18T22:12:55;10.00;99.90
52139;DHT22;38131;53.256;6.460;2023-03-18T22:15:37;10.00;99.90
52139;DHT22;38131;53.256;6.460;2023-03-18T22:18:05;9.20;99.90
52139;DHT22;38131;53.256;6.460;2023-03-18T22:20:34;10.10;99.90
52139;DHT22;38131;53.256;6.460;2023-03-18T22:23:25;10.00;99.90
52139;DHT22;38131;53.256;6.460;2023-03-18T22:26:22;10.10;99.90
52139;DHT22;38131;53.256;6.460;2023-03-18T22:28:48;10.10;99.90
52139;DHT22;38131;53.256;6.460;2023-03-18T22:31:23;10.10;99.90
52139;DHT22;38131;53.256;6.460;2023-03-18T22:33:54;10.10;99.90
52139;DHT22;38131;53.256;6.460;2023-03-18T22:38:52;10.20;99.90
52139;DHT22;38131;53.256;6.460;2023-03-18T22:41:25;10.10;99.90
52139;DHT22;38131;53.256;6.460;2023-03-18T22:43:57;10.10;99.90
52139;DHT22;38131;53.256;6.460;2023-03-18T22:46:24;10.20;99.90
52139;DHT22;38131;53.256;6.460;2023-03-18T22:48:52;10.20;99.90
52139;DHT22;38131;53.256;6.460;2023-03-18T22:54:23;10.20;99.90
52139;DHT22;38131;53.256;6.460;2023-03-18T22:57:01;10.20;99.90
52139;DHT22;38131;53.256;6.460;2023-03-18T22:59:27;10.10;99.90
52139;DHT22;38131;53.256;6.460;2023-03-18T23:05:49;10.20;99.90
52139;DHT22;38131;53.256;6.460;2023-03-18T23:08:20;10.20;99.90
52139;DHT22;38131;53.256;6.460;2023-03-18T23:10:47;10.20;99.90
52139;DHT22;38131;53.256;6.460;2023-03-18T23:16:16;10.10;99.90
52139;DHT22;38131;53.256;6.460;2023-03-18T23:18:43;10.20;99.90
52139;DHT22;38131;53.256;6.460;2023-03-18T23:25:03;10.10;99.90
52139;DHT22;38131;53.256;6.460;2023-03-18T23:27:32;10.10;99.90
52139;DHT22;38131;53.256;6.460;2023-03-18T23:30:32;10.10;99.90
52139;DHT22;38131;53.256;6.460;2023-03-18T23:32:58;10.10;99.90
52139;DHT22;38131;53.256;6.460;2023-03-18T23:39:11;10.10;99.90
52139;DHT22;38131;53.256;6.460;2023-03-18T23:41:37;10.00;99.90
52139;DHT22;38131;53.256;6.460;2023-03-18T23:44:03;10.10;99.90
52139;DHT22;38131;53.256;6.460;2023-03-18T23:46:30;9.20;99.90
52139;DHT22;38131;53.256;6.460;2023-03-18T23:52:00;10.10;99.90
52139;DHT22;38131;53.256;6.460;2023-03-18T23:54:27;10.10;99.90
52139;DHT22;38131;53.256;6.460;2023-03-18T23:57:00;10.00;99.90
